createdAt,value
2023-05-16T00:00:40.562Z,98157.19
2023-05-16T00:03:24.372Z,98166.63
2023-05-16T00:05:52.007Z,98170.06
2023-05-16T00:08:18.828Z,98157.81
2023-05-16T00:10:45.946Z,98152.69
2023-05-16T00:13:13.643Z,98154.88
2023-05-16T00:15:41.016Z,98160.84
2023-05-16T00:18:07.913Z,98162.03
2023-05-16T00:20:35.069Z,98160.47
2023-05-16T00:23:01.879Z,98162.19
2023-05-16T00:25:28.960Z,98155.19
2023-05-16T00:27:55.873Z,98156.06
2023-05-16T00:30:22.950Z,98154.66
2023-05-16T00:32:49.794Z,98163.19
2023-05-16T00:35:16.848Z,98153.34
2023-05-16T00:37:43.622Z,98155.19
2023-05-16T00:40:11.074Z,98153.81
2023-05-16T00:42:38.810Z,98155.13
2023-05-16T00:45:06.942Z,98154.13
2023-05-16T00:47:33.828Z,98162.81
2023-05-16T00:50:01.638Z,98163.75
2023-05-16T00:52:28.693Z,98166.28
2023-05-16T00:54:55.745Z,98154.16
2023-05-16T00:57:22.578Z,98156.94
2023-05-16T00:59:49.650Z,98157.84
2023-05-16T01:02:17.094Z,98160.50
2023-05-16T01:04:44.602Z,98160.19
2023-05-16T01:07:11.605Z,98164.38
2023-05-16T01:09:38.670Z,98161.38
2023-05-16T01:12:16.300Z,98159.19
2023-05-16T01:15:07.869Z,98156.47
2023-05-16T01:18:08.396Z,98150.81
2023-05-16T01:20:53.385Z,98148.66
2023-05-16T01:23:43.257Z,98144.00
2023-05-16T01:26:28.119Z,98149.63
2023-05-16T01:28:55.035Z,98149.91
2023-05-16T01:31:22.848Z,98149.13
2023-05-16T01:33:49.864Z,98152.47
2023-05-16T01:36:27.750Z,98156.94
2023-05-16T01:39:08.062Z,98152.31
2023-05-16T01:41:57.807Z,98152.25
2023-05-16T01:44:35.351Z,98151.22
2023-05-16T01:47:04.083Z,98156.66
2023-05-16T01:49:41.278Z,98155.13
2023-05-16T01:52:09.939Z,98156.25
2023-05-16T01:54:38.058Z,98155.19
2023-05-16T01:57:05.627Z,98157.53
2023-05-16T01:59:32.406Z,98163.09
2023-05-16T02:01:59.639Z,98160.06
2023-05-16T02:04:26.454Z,98165.66
2023-05-16T02:06:53.568Z,98169.75
2023-05-16T02:09:20.583Z,98165.81
2023-05-16T02:11:47.895Z,98164.22
2023-05-16T02:14:14.761Z,98171.91
2023-05-16T02:16:41.922Z,98170.97
2023-05-16T02:19:09.148Z,98172.34
2023-05-16T02:21:36.476Z,98168.94
2023-05-16T02:24:03.443Z,98169.38
2023-05-16T02:26:30.519Z,98171.09
2023-05-16T02:28:57.275Z,98173.66
2023-05-16T02:31:31.179Z,98172.09
2023-05-16T02:33:58.818Z,98169.31
2023-05-16T02:36:26.310Z,98180.94
2023-05-16T02:38:53.127Z,98178.25
2023-05-16T02:41:22.012Z,98183.16
2023-05-16T02:43:49.258Z,98179.78
2023-05-16T02:46:33.127Z,98187.06
2023-05-16T02:49:00.049Z,98180.88
2023-05-16T02:51:27.835Z,98179.09
2023-05-16T02:53:56.966Z,98187.13
2023-05-16T02:56:24.048Z,98186.13
2023-05-16T02:58:50.960Z,98181.31
2023-05-16T03:01:18.353Z,98180.78
2023-05-16T03:03:45.376Z,98183.69
2023-05-16T03:06:12.595Z,98190.09
2023-05-16T03:08:39.343Z,98192.41
2023-05-16T03:11:06.428Z,98191.72
2023-05-16T03:13:33.311Z,98193.72
2023-05-16T03:16:00.745Z,98200.69
2023-05-16T03:18:27.582Z,98195.13
2023-05-16T03:20:54.959Z,98202.31
2023-05-16T03:23:21.785Z,98212.97
2023-05-16T03:25:48.990Z,98208.13
2023-05-16T03:28:16.638Z,98200.69
2023-05-16T03:30:43.895Z,98203.09
2023-05-16T03:33:10.935Z,98203.56
2023-05-16T03:35:38.054Z,98209.69
2023-05-16T03:38:04.879Z,98200.13
2023-05-16T03:40:32.000Z,98204.28
2023-05-16T03:42:58.761Z,98208.66
2023-05-16T03:45:26.132Z,98209.69
2023-05-16T03:47:53.191Z,98217.97
2023-05-16T03:50:20.344Z,98215.09
2023-05-16T03:52:47.186Z,98219.63
2023-05-16T03:55:15.270Z,98211.25
2023-05-16T03:57:42.586Z,98216.13
2023-05-16T04:00:11.410Z,98217.00
2023-05-16T04:02:40.873Z,98214.59
2023-05-16T04:05:09.415Z,98219.13
2023-05-16T04:07:37.158Z,98223.28
2023-05-16T04:10:04.977Z,98230.53
2023-05-16T04:12:31.959Z,98233.50
2023-05-16T04:14:59.195Z,98240.00
2023-05-16T04:17:26.085Z,98234.31
2023-05-16T04:19:53.098Z,98228.84
2023-05-16T04:22:21.700Z,98234.41
2023-05-16T04:24:49.146Z,98240.22
2023-05-16T04:27:15.903Z,98243.88
2023-05-16T04:29:43.096Z,98238.50
2023-05-16T04:32:11.061Z,98248.03
2023-05-16T04:34:40.135Z,98254.16
2023-05-16T04:37:08.488Z,98256.91
2023-05-16T04:39:36.263Z,98267.59
2023-05-16T04:42:04.500Z,98263.72
2023-05-16T04:44:31.783Z,98269.00
2023-05-16T04:46:58.774Z,98266.66
2023-05-16T04:49:26.285Z,98270.09
2023-05-16T04:51:53.334Z,98270.50
2023-05-16T04:54:20.729Z,98268.63
2023-05-16T04:56:47.485Z,98276.06
2023-05-16T04:59:15.216Z,98276.75
2023-05-16T05:01:42.103Z,98273.88
2023-05-16T05:04:09.232Z,98278.66
2023-05-16T05:06:36.025Z,98277.53
2023-05-16T05:09:03.158Z,98285.22
2023-05-16T05:11:29.892Z,98285.91
2023-05-16T05:13:56.928Z,98288.16
2023-05-16T05:16:23.676Z,98276.69
2023-05-16T05:18:51.019Z,98277.06
2023-05-16T05:21:18.503Z,98278.47
2023-05-16T05:23:46.116Z,98282.41
2023-05-16T05:26:12.906Z,98278.09
2023-05-16T05:28:42.124Z,98282.50
2023-05-16T05:31:10.829Z,98275.44
2023-05-16T05:33:37.978Z,98277.53
2023-05-16T05:36:05.092Z,98271.34
2023-05-16T05:38:32.227Z,98272.72
2023-05-16T05:40:58.983Z,98274.97
2023-05-16T05:43:26.126Z,98276.66
2023-05-16T05:45:52.935Z,98277.75
2023-05-16T05:48:20.034Z,98272.38
2023-05-16T05:50:46.800Z,98270.19
2023-05-16T05:53:13.851Z,98277.13
2023-05-16T05:55:42.272Z,98274.69
2023-05-16T05:58:09.416Z,98275.75
2023-05-16T06:00:36.446Z,98282.88
2023-05-16T06:03:03.672Z,98287.00
2023-05-16T06:05:30.749Z,98285.31
2023-05-16T06:07:58.099Z,98290.44
2023-05-16T06:10:24.931Z,98278.78
2023-05-16T06:12:52.066Z,98286.09
2023-05-16T06:15:19.225Z,98282.75
2023-05-16T06:17:46.414Z,98287.53
2023-05-16T06:20:13.399Z,98284.31
2023-05-16T06:22:40.554Z,98291.50
2023-05-16T06:25:07.629Z,98294.59
2023-05-16T06:27:34.686Z,98295.94
2023-05-16T06:30:01.560Z,98298.69
2023-05-16T06:32:29.611Z,98297.72
2023-05-16T06:34:56.642Z,98300.13
2023-05-16T06:37:23.712Z,98300.97
2023-05-16T06:39:50.793Z,98286.03
2023-05-16T06:42:18.054Z,98284.38
2023-05-16T06:44:44.956Z,98275.38
2023-05-16T06:47:12.363Z,98291.19
2023-05-16T06:49:39.214Z,98293.63
2023-05-16T06:52:06.644Z,98285.97
2023-05-16T06:54:33.484Z,98291.41
2023-05-16T06:57:00.577Z,98291.25
2023-05-16T06:59:28.209Z,98286.50
2023-05-16T07:01:55.582Z,98285.78
2023-05-16T07:04:22.481Z,98275.63
2023-05-16T07:06:49.781Z,98278.50
2023-05-16T07:09:16.580Z,98280.34
2023-05-16T07:11:43.744Z,98284.66
2023-05-16T07:14:10.642Z,98288.72
2023-05-16T07:16:37.829Z,98294.66
2023-05-16T07:19:04.678Z,98300.09
2023-05-16T07:21:31.883Z,98297.84
2023-05-16T07:23:58.659Z,98295.47
2023-05-16T07:26:27.204Z,98298.16
2023-05-16T07:28:54.121Z,98303.94
2023-05-16T07:31:21.368Z,98315.16
2023-05-16T07:33:49.330Z,98319.41
2023-05-16T07:36:17.553Z,98323.63
2023-05-16T07:38:44.884Z,98328.38
2023-05-16T07:41:12.221Z,98329.03
2023-05-16T07:43:39.038Z,98337.38
2023-05-16T07:46:06.346Z,98330.16
2023-05-16T07:48:33.259Z,98336.41
2023-05-16T07:51:00.433Z,98329.06
2023-05-16T07:53:27.292Z,98325.59
2023-05-16T07:55:54.458Z,98336.81
2023-05-16T07:58:21.363Z,98339.50
2023-05-16T08:00:48.479Z,98343.53
2023-05-16T08:03:15.317Z,98339.41
2023-05-16T08:05:43.057Z,98350.28
2023-05-16T08:08:09.955Z,98337.44
2023-05-16T08:10:37.158Z,98345.56
2023-05-16T08:13:04.429Z,98345.31
2023-05-16T08:15:31.582Z,98342.34
2023-05-16T08:17:58.951Z,98351.50
2023-05-16T08:20:26.469Z,98353.13
2023-05-16T08:22:53.858Z,98355.47
2023-05-16T08:25:21.375Z,98362.75
2023-05-16T08:27:49.230Z,98368.50
2023-05-16T08:30:16.451Z,98365.81
2023-05-16T08:32:43.658Z,98360.47
2023-05-16T08:35:11.401Z,98352.19
2023-05-16T08:37:38.357Z,98362.16
2023-05-16T08:40:10.804Z,98359.94
2023-05-16T08:42:38.187Z,98357.84
2023-05-16T08:45:06.693Z,98345.47
2023-05-16T08:47:34.616Z,98352.75
2023-05-16T08:50:05.575Z,98353.84
2023-05-16T08:52:33.529Z,98351.47
2023-05-16T08:55:11.035Z,98344.41
2023-05-16T08:57:38.463Z,98350.25
2023-05-16T09:00:07.647Z,98344.25
2023-05-16T09:02:34.499Z,98344.13
2023-05-16T09:05:01.811Z,98342.13
2023-05-16T09:07:28.652Z,98336.25
2023-05-16T09:09:55.821Z,98337.84
2023-05-16T09:12:22.620Z,98331.66
2023-05-16T09:14:49.810Z,98332.34
2023-05-16T09:17:18.637Z,98339.75
2023-05-16T09:19:52.965Z,98346.66
2023-05-16T09:22:19.830Z,98348.66
2023-05-16T09:24:47.180Z,98358.50
2023-05-16T09:27:14.988Z,98365.38
2023-05-16T09:29:42.981Z,98368.94
2023-05-16T09:32:14.509Z,98367.88
2023-05-16T09:34:51.740Z,98364.75
2023-05-16T09:37:19.318Z,98363.50
2023-05-16T09:39:47.883Z,98366.53
2023-05-16T09:42:15.703Z,98358.81
2023-05-16T09:44:53.908Z,98354.00
2023-05-16T09:47:21.317Z,98352.78
2023-05-16T09:49:52.270Z,98357.84
2023-05-16T09:52:19.156Z,98347.75
2023-05-16T09:54:46.767Z,98350.31
2023-05-16T09:57:13.548Z,98346.09
2023-05-16T09:59:40.813Z,98346.13
2023-05-16T10:02:07.860Z,98350.59
2023-05-16T10:04:35.952Z,98351.47
2023-05-16T10:07:03.900Z,98345.56
2023-05-16T10:09:34.264Z,98342.44
2023-05-16T10:12:04.193Z,98338.84
2023-05-16T10:14:34.506Z,98346.69
2023-05-16T10:17:01.738Z,98340.78
2023-05-16T10:19:29.044Z,98339.94
2023-05-16T10:22:00.981Z,98343.97
2023-05-16T10:24:31.737Z,98353.50
2023-05-16T10:26:58.625Z,98353.50
2023-05-16T10:29:26.156Z,98354.97
2023-05-16T10:31:52.986Z,98357.09
2023-05-16T10:34:20.098Z,98352.84
2023-05-16T10:36:46.953Z,98348.63
2023-05-16T10:39:14.513Z,98348.44
2023-05-16T10:41:41.411Z,98344.41
2023-05-16T10:44:13.543Z,98339.31
2023-05-16T10:46:40.572Z,98345.72
2023-05-16T10:49:21.747Z,98341.66
2023-05-16T10:52:08.821Z,98338.69
2023-05-16T10:54:39.967Z,98340.19
2023-05-16T10:57:09.032Z,98333.63
2023-05-16T10:59:46.200Z,98338.69
2023-05-16T11:02:29.637Z,98334.47
2023-05-16T11:04:59.448Z,98335.94
2023-05-16T11:07:31.134Z,98323.88
2023-05-16T11:10:05.505Z,98315.63
2023-05-16T11:12:48.835Z,98317.09
2023-05-16T11:15:28.344Z,98316.66
2023-05-16T11:18:08.761Z,98328.94
2023-05-16T11:20:37.792Z,98323.44
2023-05-16T11:23:23.637Z,98318.78
2023-05-16T11:25:58.399Z,98307.75
2023-05-16T11:28:25.910Z,98302.44
2023-05-16T11:30:57.992Z,98306.25
2023-05-16T11:33:25.191Z,98312.41
2023-05-16T11:36:15.362Z,98309.41
2023-05-16T11:38:44.017Z,98302.84
2023-05-16T11:41:11.682Z,98307.31
2023-05-16T11:43:42.714Z,98308.97
2023-05-16T11:46:13.857Z,98311.53
2023-05-16T11:48:41.289Z,98312.16
2023-05-16T11:51:09.925Z,98305.59
2023-05-16T11:53:38.222Z,98305.38
2023-05-16T11:56:08.207Z,98303.88
2023-05-16T11:58:35.021Z,98302.00
2023-05-16T12:01:04.522Z,98299.03
2023-05-16T12:03:33.827Z,98298.81
2023-05-16T12:06:01.085Z,98301.34
2023-05-16T12:08:28.439Z,98302.19
2023-05-16T12:10:55.668Z,98295.84
2023-05-16T12:13:23.664Z,98293.91
2023-05-16T12:15:51.418Z,98290.31
2023-05-16T12:18:18.470Z,98287.56
2023-05-16T12:20:45.759Z,98285.25
2023-05-16T12:23:12.822Z,98294.53
2023-05-16T12:25:43.925Z,98284.78
2023-05-16T12:28:10.822Z,98280.38
2023-05-16T12:30:43.571Z,98275.28
2023-05-16T12:33:11.952Z,98271.47
2023-05-16T12:35:47.145Z,98268.25
2023-05-16T12:38:14.803Z,98267.63
2023-05-16T12:40:42.800Z,98271.47
2023-05-16T12:43:19.822Z,98274.22
2023-05-16T12:45:53.433Z,98275.25
2023-05-16T12:48:20.699Z,98274.63
2023-05-16T12:50:48.786Z,98275.03
2023-05-16T12:53:17.166Z,98275.88
2023-05-16T12:55:44.354Z,98273.53
2023-05-16T12:58:11.504Z,98274.22
2023-05-16T13:00:39.138Z,98283.53
2023-05-16T13:03:06.443Z,98281.59
2023-05-16T13:05:35.376Z,98274.44
2023-05-16T13:08:02.757Z,98279.94
2023-05-16T13:10:30.035Z,98275.47
2023-05-16T13:12:58.592Z,98267.88
2023-05-16T13:15:26.274Z,98272.94
2023-05-16T13:17:53.551Z,98267.88
2023-05-16T13:20:21.304Z,98276.53
2023-05-16T13:22:48.228Z,98265.28
2023-05-16T13:25:15.337Z,98272.94
2023-05-16T13:27:42.246Z,98278.44
2023-05-16T13:30:09.754Z,98289.47
2023-05-16T13:32:36.626Z,98288.03
2023-05-16T13:35:04.241Z,98288.44
2023-05-16T13:37:31.540Z,98289.53
2023-05-16T13:39:58.828Z,98292.72
2023-05-16T13:42:25.607Z,98292.50
2023-05-16T13:44:52.780Z,98303.09
2023-05-16T13:47:19.957Z,98297.63
2023-05-16T13:49:47.705Z,98297.00
2023-05-16T13:52:14.923Z,98302.72
2023-05-16T13:54:42.096Z,98302.09
2023-05-16T13:57:09.082Z,98307.81
2023-05-16T14:02:06.029Z,98309.28
2023-05-16T14:04:33.502Z,98319.22
2023-05-16T14:07:00.438Z,98323.88
2023-05-16T14:09:27.599Z,98332.13
2023-05-16T14:11:54.418Z,98333.81
2023-05-16T14:14:21.646Z,98341.22
2023-05-16T14:16:48.851Z,98346.09
2023-05-16T14:19:18.980Z,98341.41
2023-05-16T14:21:46.326Z,98335.06
2023-05-16T14:24:13.495Z,98337.19
2023-05-16T14:26:41.148Z,98337.38
2023-05-16T14:29:08.380Z,98339.28
2023-05-16T14:31:36.649Z,98331.41
2023-05-16T14:34:04.325Z,98336.03
2023-05-16T14:36:31.929Z,98327.56
2023-05-16T14:38:59.206Z,98330.47
2023-05-16T14:41:26.676Z,98326.69
2023-05-16T14:43:53.853Z,98323.72
2023-05-16T14:46:20.906Z,98333.41
2023-05-16T14:48:48.067Z,98339.72
2023-05-16T14:51:15.251Z,98337.59
2023-05-16T14:53:43.746Z,98345.19
2023-05-16T14:56:12.155Z,98347.06
2023-05-16T14:58:39.340Z,98348.91
2023-05-16T15:01:06.270Z,98351.84
2023-05-16T15:03:43.226Z,98349.25
2023-05-16T15:06:17.950Z,98344.97
2023-05-16T15:08:45.065Z,98338.84
2023-05-16T15:11:12.070Z,98336.06
2023-05-16T15:13:39.474Z,98342.34
2023-05-16T15:16:06.515Z,98345.50
2023-05-16T15:18:34.220Z,98340.16
2023-05-16T15:21:01.220Z,98332.56
2023-05-16T15:23:28.383Z,98333.34
2023-05-16T15:25:55.323Z,98328.06
2023-05-16T15:28:22.683Z,98314.50
2023-05-16T15:30:51.264Z,98317.63
2023-05-16T15:33:18.486Z,98309.16
2023-05-16T15:35:45.360Z,98310.44
2023-05-16T15:38:12.582Z,98306.94
2023-05-16T15:40:39.476Z,98292.78
2023-05-16T15:43:07.166Z,98291.94
2023-05-16T15:45:34.093Z,98287.69
2023-05-16T15:48:02.046Z,98290.84
2023-05-16T15:50:28.906Z,98287.38
2023-05-16T15:52:58.330Z,98292.56
2023-05-16T15:55:25.628Z,98287.75
2023-05-16T15:57:57.048Z,98293.22
2023-05-16T16:00:24.569Z,98297.59
2023-05-16T16:02:52.076Z,98294.19
2023-05-16T16:05:18.998Z,98308.69
2023-05-16T16:07:46.099Z,98305.47
2023-05-16T16:10:12.928Z,98319.38
2023-05-16T16:12:40.156Z,98319.94
2023-05-16T16:15:07.784Z,98323.09
2023-05-16T16:17:35.026Z,98319.03
2023-05-16T16:20:01.870Z,98320.50
2023-05-16T16:22:28.960Z,98320.03
2023-05-16T16:24:56.271Z,98324.19
2023-05-16T16:27:23.611Z,98324.56
2023-05-16T16:29:50.501Z,98329.75
2023-05-16T16:32:17.673Z,98322.78
2023-05-16T16:34:44.492Z,98332.22
2023-05-16T16:37:11.752Z,98338.72
2023-05-16T16:39:38.674Z,98341.88
2023-05-16T16:42:06.523Z,98343.66
2023-05-16T16:44:33.356Z,98346.38
2023-05-16T16:47:00.946Z,98337.06
2023-05-16T16:49:27.801Z,98333.41
2023-05-16T16:51:54.958Z,98332.94
2023-05-16T16:54:22.429Z,98329.53
2023-05-16T16:56:49.859Z,98331.78
2023-05-16T16:59:16.872Z,98333.69
2023-05-16T17:01:44.261Z,98339.72
2023-05-16T17:04:11.909Z,98328.31
2023-05-16T17:06:38.966Z,98340.47
2023-05-16T17:09:07.082Z,98353.69
2023-05-16T17:11:36.437Z,98358.50
2023-05-16T17:14:05.785Z,98367.94
2023-05-16T17:16:33.804Z,98363.88
2023-05-16T17:19:01.474Z,98381.31
2023-05-16T17:21:28.757Z,98374.34
2023-05-16T17:23:58.004Z,98378.47
2023-05-16T17:26:25.418Z,98383.66
2023-05-16T17:28:52.284Z,98377.53
2023-05-16T17:31:19.556Z,98377.41
2023-05-16T17:33:46.323Z,98374.38
2023-05-16T17:36:13.410Z,98371.47
2023-05-16T17:38:40.366Z,98374.38
2023-05-16T17:41:07.464Z,98370.34
2023-05-16T17:43:34.249Z,98369.66
2023-05-16T17:46:01.508Z,98373.44
2023-05-16T17:48:28.323Z,98372.78
2023-05-16T17:50:55.959Z,98376.25
2023-05-16T17:53:23.802Z,98375.59
2023-05-16T17:55:51.691Z,98373.88
2023-05-16T17:58:18.614Z,98385.16
2023-05-16T18:00:48.626Z,98380.47
2023-05-16T18:03:15.862Z,98380.81
2023-05-16T18:05:43.188Z,98382.91
2023-05-16T18:08:10.091Z,98388.16
2023-05-16T18:10:50.955Z,98386.84
2023-05-16T18:13:19.316Z,98384.66
2023-05-16T18:15:46.461Z,98392.19
2023-05-16T18:18:13.611Z,98393.59
2023-05-16T18:20:41.007Z,98392.91
2023-05-16T18:23:08.518Z,98401.66
2023-05-16T18:25:35.613Z,98405.41
2023-05-16T18:28:02.670Z,98409.16
2023-05-16T18:30:29.859Z,98408.03
2023-05-16T18:32:56.752Z,98403.75
2023-05-16T18:35:23.972Z,98404.16
2023-05-16T18:37:51.286Z,98410.81
2023-05-16T18:40:18.421Z,98406.94
2023-05-16T18:42:45.230Z,98409.97
2023-05-16T18:45:12.349Z,98409.31
2023-05-16T18:47:39.269Z,98410.34
2023-05-16T18:50:07.390Z,98409.50
2023-05-16T18:52:35.380Z,98416.50
2023-05-16T18:55:02.702Z,98406.31
2023-05-16T18:57:29.508Z,98406.69
2023-05-16T18:59:56.944Z,98417.94
2023-05-16T19:02:33.992Z,98418.66
2023-05-16T19:05:09.019Z,98418.81
2023-05-16T19:07:35.970Z,98418.16
2023-05-16T19:10:04.127Z,98415.44
2023-05-16T19:12:31.108Z,98419.72
2023-05-16T19:14:58.342Z,98418.03
2023-05-16T19:17:25.336Z,98425.53
2023-05-16T19:19:52.666Z,98417.03
2023-05-16T19:22:19.443Z,98423.81
2023-05-16T19:24:46.565Z,98428.97
2023-05-16T19:27:13.383Z,98429.50
2023-05-16T19:29:40.539Z,98426.75
2023-05-16T19:32:07.736Z,98423.03
2023-05-16T19:34:34.974Z,98422.88
2023-05-16T19:37:03.458Z,98418.63
2023-05-16T19:39:38.244Z,98423.41
2023-05-16T19:42:07.466Z,98412.66
2023-05-16T19:44:35.423Z,98417.28
2023-05-16T19:47:02.298Z,98413.03
2023-05-16T19:49:31.653Z,98406.72
2023-05-16T19:51:58.416Z,98400.94
2023-05-16T19:54:25.834Z,98403.47
2023-05-16T19:56:52.666Z,98400.59
2023-05-16T19:59:20.637Z,98403.19
2023-05-16T20:01:47.376Z,98399.78
2023-05-16T20:04:14.658Z,98398.56
2023-05-16T20:06:41.633Z,98392.44
2023-05-16T20:09:08.854Z,98391.78
2023-05-16T20:11:35.760Z,98393.81
2023-05-16T20:14:02.891Z,98400.13
2023-05-16T20:16:29.701Z,98402.19
2023-05-16T20:18:56.857Z,98400.78
2023-05-16T20:21:23.850Z,98383.94
2023-05-16T20:23:51.135Z,98390.78
2023-05-16T20:26:17.897Z,98389.41
2023-05-16T20:28:44.988Z,98396.25
2023-05-16T20:31:11.756Z,98402.69
2023-05-16T20:33:38.868Z,98399.47
2023-05-16T20:36:05.764Z,98399.66
2023-05-16T20:38:32.827Z,98398.81
2023-05-16T20:40:59.797Z,98392.38
2023-05-16T20:43:26.990Z,98389.81
2023-05-16T20:45:53.806Z,98385.88
2023-05-16T20:48:21.054Z,98374.13
2023-05-16T20:50:48.097Z,98377.03
2023-05-16T20:53:15.313Z,98364.78
2023-05-16T20:55:42.081Z,98370.91
2023-05-16T20:58:09.105Z,98370.06
2023-05-16T21:00:35.881Z,98377.56
2023-05-16T21:03:03.200Z,98369.03
2023-05-16T21:05:30.128Z,98371.25
2023-05-16T21:07:57.272Z,98371.41
2023-05-16T21:10:24.089Z,98369.56
2023-05-16T21:12:51.321Z,98375.84
2023-05-16T21:15:18.821Z,98377.75
2023-05-16T21:17:47.038Z,98385.22
2023-05-16T21:20:13.826Z,98388.47
2023-05-16T21:22:41.052Z,98388.13
2023-05-16T21:25:08.163Z,98379.09
2023-05-16T21:27:35.200Z,98384.19
2023-05-16T21:30:01.922Z,98385.91
2023-05-16T21:32:32.378Z,98381.63
2023-05-16T21:35:01.241Z,98385.53
2023-05-16T21:37:28.400Z,98384.19
2023-05-16T21:39:55.149Z,98384.03
2023-05-16T21:42:22.273Z,98380.97
2023-05-16T21:44:49.087Z,98372.59
2023-05-16T21:47:16.205Z,98377.34
2023-05-16T21:49:43.188Z,98377.69
2023-05-16T21:52:10.361Z,98377.19
2023-05-16T21:54:37.467Z,98379.22
2023-05-16T21:57:04.675Z,98393.19
2023-05-16T21:59:31.416Z,98386.53
2023-05-16T22:01:58.531Z,98385.00
2023-05-16T22:04:25.395Z,98380.75
2023-05-16T22:06:52.568Z,98385.84
2023-05-16T22:09:19.311Z,98383.97
2023-05-16T22:11:46.369Z,98386.16
2023-05-16T22:14:13.156Z,98384.97
2023-05-16T22:16:40.377Z,98383.28
2023-05-16T22:19:07.761Z,98380.72
2023-05-16T22:21:34.962Z,98384.16
2023-05-16T22:24:01.728Z,98385.50
2023-05-16T22:26:28.764Z,98387.03
2023-05-16T22:28:55.501Z,98389.59
2023-05-16T22:31:22.595Z,98388.19
2023-05-16T22:33:49.407Z,98381.41
2023-05-16T22:36:16.464Z,98382.25
2023-05-16T22:38:43.224Z,98385.47
2023-05-16T22:41:10.438Z,98377.47
2023-05-16T22:43:37.450Z,98384.44
2023-05-16T22:46:04.576Z,98381.72
2023-05-16T22:48:31.586Z,98390.22
2023-05-16T22:50:59.607Z,98389.53
2023-05-16T22:53:26.382Z,98391.38
2023-05-16T22:55:53.402Z,98392.75
2023-05-16T22:58:20.159Z,98394.28
2023-05-16T23:00:47.229Z,98390.00
2023-05-16T23:03:14.111Z,98398.31
2023-05-16T23:05:41.264Z,98397.28
2023-05-16T23:08:08.046Z,98393.91
2023-05-16T23:10:35.173Z,98398.13
2023-05-16T23:13:01.966Z,98394.50
2023-05-16T23:15:29.260Z,98392.53
2023-05-16T23:17:56.369Z,98389.81
2023-05-16T23:20:23.557Z,98386.22
2023-05-16T23:22:50.325Z,98400.53
2023-05-16T23:25:17.438Z,98401.03
2023-05-16T23:27:44.435Z,98398.94
2023-05-16T23:30:11.854Z,98400.47
2023-05-16T23:32:38.564Z,98410.06
2023-05-16T23:35:06.242Z,98413.94
2023-05-16T23:37:32.994Z,98410.84
2023-05-16T23:40:00.065Z,98406.59
2023-05-16T23:42:26.867Z,98411.34
2023-05-16T23:44:53.897Z,98398.03
2023-05-16T23:47:20.665Z,98401.56
2023-05-16T23:49:47.760Z,98395.88
2023-05-16T23:52:14.530Z,98394.06
2023-05-16T23:54:41.638Z,98397.19
2023-05-16T23:57:08.385Z,98397.91
2023-05-16T23:59:35.468Z,98406.06
